createdAt,value
2018-09-21T00:02:05.429Z,7.30
2018-09-21T00:04:40.515Z,8.00
2018-09-21T00:07:15.695Z,7.47
2018-09-21T00:09:50.812Z,7.10
2018-09-21T00:12:25.929Z,10.67
2018-09-21T00:15:01.125Z,9.27
2018-09-21T00:17:36.072Z,8.10
2018-09-21T00:20:11.266Z,6.50
2018-09-21T00:22:46.276Z,8.53
2018-09-21T00:25:21.447Z,8.47
2018-09-21T00:27:56.537Z,6.83
2018-09-21T00:30:31.632Z,10.00
2018-09-21T00:33:06.857Z,8.67
2018-09-21T00:35:41.849Z,9.37
2018-09-21T00:38:16.926Z,13.57
2018-09-21T00:40:52.148Z,9.10
2018-09-21T00:43:27.352Z,9.53
2018-09-21T00:46:02.428Z,8.33
2018-09-21T00:48:37.545Z,5.83
2018-09-21T00:51:12.639Z,8.47
2018-09-21T00:53:47.769Z,8.70
2018-09-21T00:56:22.883Z,8.57
2018-09-21T00:58:58.020Z,10.00
2018-09-21T01:01:33.143Z,7.90
2018-09-21T01:04:08.589Z,6.67
2018-09-21T01:06:43.592Z,12.77
2018-09-21T01:09:18.637Z,6.00
2018-09-21T01:11:53.758Z,8.33
2018-09-21T01:14:28.873Z,8.37
2018-09-21T01:17:04.034Z,9.07
2018-09-21T01:19:39.236Z,7.10
2018-09-21T01:22:14.360Z,6.27
2018-09-21T01:24:49.649Z,5.60
2018-09-21T01:27:24.737Z,8.30
2018-09-21T01:29:59.884Z,11.40
2018-09-21T01:32:35.024Z,8.63
2018-09-21T01:35:10.216Z,7.40
2018-09-21T01:37:45.317Z,7.67
2018-09-21T01:40:20.473Z,9.40
2018-09-21T01:42:55.663Z,8.80
2018-09-21T01:45:30.760Z,8.20
2018-09-21T01:48:06.086Z,8.73
2018-09-21T01:50:41.164Z,8.00
2018-09-21T01:53:16.364Z,9.63
2018-09-21T01:55:51.442Z,10.90
2018-09-21T01:58:26.689Z,11.73
2018-09-21T02:01:01.771Z,10.23
2018-09-21T02:03:36.900Z,7.37
2018-09-21T02:06:11.945Z,7.83
2018-09-21T02:08:47.134Z,6.40
2018-09-21T02:11:22.292Z,8.57
2018-09-21T02:13:57.452Z,9.60
2018-09-21T02:16:32.531Z,7.37
2018-09-21T02:19:07.510Z,8.90
2018-09-21T02:21:42.559Z,11.20
2018-09-21T02:24:17.729Z,8.27
2018-09-21T02:26:53.058Z,8.47
2018-09-21T02:29:28.239Z,7.93
2018-09-21T02:32:03.066Z,9.87
2018-09-21T02:34:38.276Z,8.60
2018-09-21T02:37:13.402Z,11.23
2018-09-21T02:39:48.504Z,9.00
2018-09-21T02:42:23.617Z,9.17
2018-09-21T02:44:58.812Z,6.60
2018-09-21T02:47:33.973Z,9.43
2018-09-21T02:50:09.044Z,9.57
2018-09-21T02:52:44.257Z,8.57
2018-09-21T02:55:19.359Z,8.70
2018-09-21T02:57:54.515Z,11.40
2018-09-21T03:00:29.603Z,9.57
2018-09-21T03:03:04.542Z,10.03
2018-09-21T03:05:39.803Z,7.50
2018-09-21T03:08:14.970Z,9.33
2018-09-21T03:10:50.006Z,9.27
2018-09-21T03:13:24.977Z,9.03
2018-09-21T03:16:00.079Z,7.47
2018-09-21T03:18:35.210Z,7.67
2018-09-21T03:21:10.353Z,6.47
2018-09-21T03:23:45.448Z,11.07
2018-09-21T03:26:20.540Z,10.47
2018-09-21T03:28:55.872Z,5.50
2018-09-21T03:31:30.896Z,8.43
2018-09-21T03:34:06.057Z,11.17
2018-09-21T03:36:41.166Z,7.30
2018-09-21T03:39:16.311Z,7.30
2018-09-21T03:41:51.336Z,8.53
2018-09-21T03:44:26.371Z,8.17
2018-09-21T03:47:01.482Z,6.73
2018-09-21T03:49:36.544Z,9.73
2018-09-21T03:52:11.732Z,7.03
2018-09-21T03:54:46.909Z,7.73
2018-09-21T03:57:21.997Z,7.00
2018-09-21T03:59:57.081Z,7.57
2018-09-21T04:02:32.184Z,9.80
2018-09-21T04:05:07.963Z,5.90
2018-09-21T04:07:43.029Z,11.17
2018-09-21T04:10:18.008Z,12.40
2018-09-21T04:12:52.968Z,8.57
2018-09-21T04:15:28.116Z,10.60
2018-09-21T04:18:03.211Z,7.67
2018-09-21T04:20:38.429Z,7.03
2018-09-21T04:23:13.616Z,7.43
2018-09-21T04:25:48.649Z,9.93
2018-09-21T04:28:23.705Z,8.83
2018-09-21T04:30:58.843Z,10.93
2018-09-21T04:33:33.777Z,8.37
2018-09-21T04:36:08.874Z,9.03
2018-09-21T04:38:44.080Z,8.63
2018-09-21T04:41:19.138Z,11.13
2018-09-21T04:43:54.317Z,10.43
2018-09-21T04:46:29.473Z,6.57
2018-09-21T04:49:04.553Z,8.90
2018-09-21T04:51:39.661Z,10.20
2018-09-21T04:54:14.827Z,8.47
2018-09-21T04:56:49.941Z,7.27
2018-09-21T04:59:25.170Z,8.20
2018-09-21T05:02:00.283Z,7.40
2018-09-21T05:04:35.380Z,10.97
2018-09-21T05:07:10.420Z,7.47
2018-09-21T05:09:45.604Z,10.73
2018-09-21T05:12:20.656Z,9.37
2018-09-21T05:14:55.811Z,7.40
2018-09-21T05:17:30.896Z,8.83
2018-09-21T05:20:06.168Z,8.00
2018-09-21T05:22:41.361Z,8.87
2018-09-21T05:25:16.552Z,10.30
2018-09-21T05:27:51.716Z,10.13
2018-09-21T05:30:26.822Z,9.77
2018-09-21T05:33:02.010Z,11.43
2018-09-21T05:35:36.946Z,9.43
2018-09-21T05:38:12.487Z,8.37
2018-09-21T05:40:47.520Z,8.87
2018-09-21T05:43:22.621Z,9.13
2018-09-21T05:45:57.697Z,6.60
2018-09-21T05:48:32.817Z,8.67
2018-09-21T05:51:08.036Z,7.83
2018-09-21T05:53:43.032Z,8.63
2018-09-21T05:56:18.151Z,6.70
2018-09-21T05:58:53.413Z,8.43
2018-09-21T06:01:28.541Z,8.87
2018-09-21T06:04:03.664Z,6.33
2018-09-21T06:06:38.845Z,7.77
2018-09-21T06:09:14.633Z,7.37
2018-09-21T06:11:49.807Z,6.57
2018-09-21T06:14:24.857Z,7.57
2018-09-21T06:16:59.948Z,5.03
2018-09-21T06:19:34.929Z,5.67
2018-09-21T06:22:10.160Z,9.30
2018-09-21T06:24:45.324Z,6.73
2018-09-21T06:27:20.492Z,6.03
2018-09-21T06:29:55.455Z,9.80
2018-09-21T06:32:30.632Z,7.33
2018-09-21T06:35:05.853Z,6.57
2018-09-21T06:37:40.870Z,7.00
2018-09-21T06:40:16.001Z,8.87
2018-09-21T06:42:51.145Z,8.10
2018-09-21T06:45:26.219Z,9.13
2018-09-21T06:48:01.420Z,8.33
2018-09-21T06:50:36.468Z,7.67
2018-09-21T06:53:11.613Z,8.87
2018-09-21T06:55:46.701Z,13.03
2018-09-21T06:58:21.769Z,9.33
2018-09-21T07:00:56.860Z,7.73
2018-09-21T07:03:31.861Z,8.13
2018-09-21T07:06:07.065Z,9.80
2018-09-21T07:08:42.201Z,9.07
2018-09-21T07:11:17.317Z,9.53
2018-09-21T07:13:52.622Z,7.33
2018-09-21T07:16:27.815Z,9.23
2018-09-21T07:19:02.749Z,9.37
2018-09-21T07:21:37.813Z,8.43
2018-09-21T07:24:12.699Z,8.20
2018-09-21T07:26:47.826Z,11.00
2018-09-21T07:29:22.929Z,6.53
2018-09-21T07:31:58.082Z,9.10
2018-09-21T07:34:33.177Z,8.80
2018-09-21T07:37:08.394Z,8.13
2018-09-21T07:39:43.565Z,4.63
2018-09-21T07:42:18.521Z,8.70
2018-09-21T07:44:53.564Z,8.27
2018-09-21T07:47:28.708Z,9.57
2018-09-21T07:50:03.804Z,5.40
2018-09-21T07:52:38.928Z,7.07
2018-09-21T07:55:14.037Z,7.77
2018-09-21T07:57:49.144Z,9.37
2018-09-21T08:00:24.212Z,6.28
2018-09-21T08:02:59.132Z,5.67
2018-09-21T08:05:35.264Z,5.97
2018-09-21T08:08:10.316Z,6.47
2018-09-21T08:10:45.428Z,8.73
2018-09-21T08:13:20.509Z,9.18
2018-09-21T08:15:55.602Z,8.17
2018-09-21T08:18:30.912Z,9.08
2018-09-21T08:21:06.053Z,7.35
2018-09-21T08:23:41.229Z,9.28
2018-09-21T08:26:16.393Z,9.23
2018-09-21T08:28:51.496Z,5.30
2018-09-21T08:31:26.682Z,8.07
2018-09-21T08:34:01.771Z,10.00
2018-09-21T08:36:36.808Z,5.65
2018-09-21T08:39:12.437Z,6.87
2018-09-21T08:41:47.477Z,5.47
2018-09-21T08:44:22.595Z,7.55
2018-09-21T08:46:57.710Z,10.03
2018-09-21T08:49:32.716Z,10.30
2018-09-21T08:52:07.732Z,11.38
2018-09-21T08:54:42.887Z,8.63
2018-09-21T08:57:18.021Z,9.28
2018-09-21T08:59:53.081Z,7.42
2018-09-21T09:02:28.182Z,6.72
2018-09-21T09:05:03.365Z,9.18
2018-09-21T09:07:38.380Z,6.45
2018-09-21T09:10:13.506Z,7.87
2018-09-21T09:12:48.832Z,9.20
2018-09-21T09:15:23.920Z,8.45
2018-09-21T09:17:59.071Z,7.33
2018-09-21T09:20:34.257Z,9.95
2018-09-21T09:23:09.436Z,7.10
2018-09-21T09:25:44.472Z,8.68
2018-09-21T09:28:19.548Z,6.15
2018-09-21T09:30:54.736Z,7.00
2018-09-21T09:33:29.838Z,7.00
2018-09-21T09:36:04.974Z,5.05
2018-09-21T09:38:40.101Z,7.97
2018-09-21T09:41:15.145Z,7.03
2018-09-21T09:43:50.310Z,6.50
2018-09-21T09:46:25.441Z,6.50
2018-09-21T09:49:00.528Z,5.97
2018-09-21T09:51:35.645Z,8.60
2018-09-21T09:54:10.741Z,11.30
2018-09-21T09:56:45.737Z,5.72
2018-09-21T09:59:20.825Z,9.10
2018-09-21T10:01:55.952Z,5.45
2018-09-21T10:04:31.017Z,6.15
2018-09-21T10:07:06.093Z,9.98
2018-09-21T10:09:41.136Z,9.40
2018-09-21T10:12:16.142Z,5.22
2018-09-21T10:14:51.274Z,4.80
2018-09-21T10:17:26.412Z,8.30
2018-09-21T10:20:01.606Z,6.20
2018-09-21T10:22:36.814Z,6.97
2018-09-21T10:25:12.005Z,7.35
2018-09-21T10:27:47.181Z,6.87
2018-09-21T10:30:22.179Z,8.88
2018-09-21T10:32:57.325Z,8.28
2018-09-21T10:35:32.544Z,8.63
2018-09-21T10:38:07.556Z,10.18
2018-09-21T10:40:42.582Z,10.00
2018-09-21T10:43:17.712Z,11.45
2018-09-21T10:45:52.797Z,7.03
2018-09-21T10:48:27.900Z,9.33
2018-09-21T10:51:03.076Z,9.55
2018-09-21T10:53:38.163Z,5.35
2018-09-21T10:56:13.156Z,3.87
2018-09-21T10:58:48.316Z,6.70
2018-09-21T11:01:23.451Z,6.12
2018-09-21T11:03:58.601Z,6.85
2018-09-21T11:06:33.624Z,4.87
2018-09-21T11:09:10.546Z,9.03
2018-09-21T11:11:45.608Z,7.65
2018-09-21T11:14:20.829Z,7.95
2018-09-21T11:16:55.921Z,8.93
2018-09-21T11:19:31.180Z,7.42
2018-09-21T11:22:06.509Z,10.88
2018-09-21T11:24:41.557Z,5.35
2018-09-21T11:27:16.670Z,11.68
2018-09-21T11:29:51.745Z,4.30
2018-09-21T11:32:26.726Z,8.38
2018-09-21T11:35:01.801Z,5.75
2018-09-21T11:37:36.714Z,9.35
2018-09-21T11:40:11.944Z,7.70
2018-09-21T11:42:46.912Z,8.10
2018-09-21T11:45:22.002Z,4.93
2018-09-21T11:47:56.901Z,6.30
2018-09-21T11:50:31.940Z,9.33
2018-09-21T11:53:07.653Z,2.53
2018-09-21T11:55:42.805Z,4.70
2018-09-21T11:58:18.069Z,3.53
2018-09-21T12:00:53.096Z,5.90
2018-09-21T12:03:28.268Z,4.17
2018-09-21T12:06:05.965Z,4.73
2018-09-21T12:08:41.046Z,4.83
2018-09-21T12:11:15.996Z,3.60
2018-09-21T12:13:50.930Z,6.27
2018-09-21T12:16:26.032Z,5.90
2018-09-21T12:19:01.184Z,5.80
2018-09-21T12:21:36.273Z,9.07
2018-09-21T12:24:11.400Z,5.07
2018-09-21T12:26:46.508Z,5.13
2018-09-21T12:29:21.548Z,6.80
2018-09-21T12:31:56.595Z,7.80
2018-09-21T12:34:31.572Z,5.83
2018-09-21T12:37:06.465Z,9.87
2018-09-21T12:39:41.524Z,5.93
2018-09-21T12:42:16.705Z,6.67
2018-09-21T12:44:51.825Z,3.33
2018-09-21T12:47:26.893Z,6.77
2018-09-21T12:50:02.066Z,6.20
2018-09-21T12:52:37.220Z,5.53
2018-09-21T12:55:12.311Z,5.13
2018-09-21T12:57:47.243Z,5.53
2018-09-21T13:00:22.361Z,5.77
2018-09-21T13:02:57.342Z,4.73
2018-09-21T13:05:32.445Z,6.07
2018-09-21T13:08:07.498Z,4.00
2018-09-21T13:10:42.580Z,4.60
2018-09-21T13:13:17.716Z,3.43
2018-09-21T13:15:53.233Z,5.37
2018-09-21T13:18:28.387Z,4.00
2018-09-21T13:21:03.537Z,4.03
2018-09-21T13:23:38.843Z,5.80
2018-09-21T13:26:13.917Z,4.67
2018-09-21T13:28:48.980Z,4.63
2018-09-21T13:31:24.044Z,3.73
2018-09-21T13:33:59.168Z,5.07
2018-09-21T13:36:34.312Z,3.63
2018-09-21T13:39:11.520Z,7.37
2018-09-21T13:41:46.598Z,5.33
2018-09-21T13:44:21.795Z,4.83
2018-09-21T13:46:56.885Z,3.70
2018-09-21T13:49:31.972Z,4.77
2018-09-21T13:52:07.120Z,3.87
2018-09-21T13:54:42.265Z,6.33
2018-09-21T13:57:17.328Z,4.63
2018-09-21T13:59:52.333Z,3.20
2018-09-21T14:02:27.424Z,3.90
2018-09-21T14:05:02.552Z,3.53
2018-09-21T14:07:37.628Z,5.53
2018-09-21T14:10:13.105Z,5.07
2018-09-21T14:12:48.141Z,6.10
2018-09-21T14:15:23.220Z,3.87
2018-09-21T14:17:58.383Z,4.87
2018-09-21T14:20:33.444Z,6.30
2018-09-21T14:23:08.549Z,4.30
2018-09-21T14:25:43.857Z,7.17
2018-09-21T14:28:18.975Z,6.80
2018-09-21T14:30:53.860Z,4.50
2018-09-21T14:33:29.031Z,6.77
2018-09-21T14:36:04.148Z,7.50
2018-09-21T14:38:39.180Z,4.57
2018-09-21T14:41:14.233Z,3.53
2018-09-21T14:43:49.417Z,5.10
2018-09-21T14:46:24.340Z,5.30
2018-09-21T14:48:59.257Z,6.20
2018-09-21T14:51:34.340Z,7.00
2018-09-21T14:54:09.516Z,5.77
2018-09-21T14:56:44.560Z,5.93
2018-09-21T14:59:19.624Z,5.07
2018-09-21T15:01:54.714Z,7.60
2018-09-21T15:04:29.759Z,6.70
2018-09-21T15:07:04.900Z,7.00
2018-09-21T15:09:39.868Z,8.07
2018-09-21T15:12:15.071Z,6.13
2018-09-21T15:14:50.344Z,9.07
2018-09-21T15:17:25.316Z,9.13
2018-09-21T15:20:00.432Z,6.00
2018-09-21T15:22:35.567Z,5.70
2018-09-21T15:25:10.657Z,7.93
2018-09-21T15:27:45.612Z,7.97
2018-09-21T15:30:20.777Z,8.37
2018-09-21T15:32:55.854Z,6.60
2018-09-21T15:35:30.779Z,7.90
2018-09-21T15:38:05.852Z,3.63
2018-09-21T15:40:40.797Z,6.83
2018-09-21T15:43:16.004Z,7.63
2018-09-21T15:45:50.936Z,7.73
2018-09-21T15:48:25.978Z,5.40
2018-09-21T15:51:01.056Z,3.20
2018-09-21T15:53:36.275Z,5.30
2018-09-21T15:56:11.433Z,5.17
2018-09-21T15:58:46.649Z,6.77
2018-09-21T16:01:21.660Z,6.00
2018-09-21T16:03:56.719Z,4.93
2018-09-21T16:06:34.708Z,3.47
2018-09-21T16:09:09.907Z,4.30
2018-09-21T16:11:44.782Z,3.60
2018-09-21T16:14:19.988Z,3.47
2018-09-21T16:16:55.256Z,4.33
2018-09-21T16:19:30.278Z,2.40
2018-09-21T16:22:05.396Z,3.10
2018-09-21T16:24:40.497Z,4.83
2018-09-21T16:27:15.468Z,4.03
2018-09-21T16:29:50.571Z,2.93
2018-09-21T16:32:25.617Z,5.47
2018-09-21T16:35:00.705Z,1.80
2018-09-21T16:37:35.835Z,3.83
2018-09-21T16:40:10.928Z,2.30
2018-09-21T16:42:45.956Z,4.20
2018-09-21T16:45:20.841Z,4.23
2018-09-21T16:47:55.964Z,3.43
2018-09-21T16:50:30.972Z,2.93
2018-09-21T16:53:05.937Z,3.43
2018-09-21T16:55:41.102Z,2.50
2018-09-21T16:58:16.264Z,3.13
2018-09-21T17:00:51.656Z,1.97
2018-09-21T17:03:26.833Z,3.27
2018-09-21T17:06:01.716Z,6.63
2018-09-21T17:08:36.817Z,2.37
2018-09-21T17:11:11.949Z,5.83
2018-09-21T17:13:47.013Z,2.97
2018-09-21T17:16:22.013Z,5.77
2018-09-21T17:18:57.008Z,5.10
2018-09-21T17:21:32.196Z,4.77
2018-09-21T17:24:07.254Z,2.67
2018-09-21T17:26:42.424Z,4.03
2018-09-21T17:29:17.524Z,3.17
2018-09-21T17:31:52.622Z,10.03
2018-09-21T17:34:27.812Z,3.20
2018-09-21T17:37:02.955Z,7.73
2018-09-21T17:39:38.108Z,1.23
2018-09-21T17:42:13.205Z,5.03
2018-09-21T17:44:48.397Z,4.83
2018-09-21T17:47:23.449Z,2.17
2018-09-21T17:49:58.601Z,3.23
2018-09-21T17:52:33.764Z,4.00
2018-09-21T17:55:08.872Z,4.23
2018-09-21T17:57:44.281Z,2.07
2018-09-21T18:00:19.306Z,4.20
2018-09-21T18:02:54.369Z,3.60
2018-09-21T18:05:29.524Z,4.50
2018-09-21T18:08:04.676Z,3.93
2018-09-21T18:10:39.709Z,2.90
2018-09-21T18:13:14.824Z,4.47
2018-09-21T18:15:50.053Z,5.87
2018-09-21T18:18:25.076Z,4.97
2018-09-21T18:21:00.149Z,3.00
2018-09-21T18:23:35.256Z,2.17
2018-09-21T18:26:10.393Z,8.87
2018-09-21T18:28:45.556Z,2.77
2018-09-21T18:31:20.613Z,2.10
2018-09-21T18:33:56.041Z,2.20
2018-09-21T18:36:31.149Z,4.10
2018-09-21T18:39:07.445Z,1.83
2018-09-21T18:41:42.485Z,5.33
2018-09-21T18:44:17.573Z,2.77
2018-09-21T18:46:52.736Z,3.33
2018-09-21T18:49:27.768Z,2.27
2018-09-21T18:52:03.016Z,2.30
2018-09-21T18:54:38.105Z,2.03
2018-09-21T18:57:13.252Z,5.03
2018-09-21T18:59:48.144Z,2.13
2018-09-21T19:02:23.152Z,1.83
2018-09-21T19:04:58.093Z,1.63
2018-09-21T19:07:33.749Z,4.80
2018-09-21T19:10:08.932Z,2.93
2018-09-21T19:12:44.004Z,5.63
2018-09-21T19:15:19.116Z,8.00
2018-09-21T19:17:53.975Z,4.07
2018-09-21T19:20:29.065Z,1.80
2018-09-21T19:23:04.156Z,3.20
2018-09-21T19:25:39.301Z,4.80
2018-09-21T19:28:14.410Z,6.50
2018-09-21T19:30:49.544Z,4.83
2018-09-21T19:33:24.592Z,6.63
2018-09-21T19:35:59.688Z,5.53
2018-09-21T19:38:34.729Z,2.10
2018-09-21T19:41:09.715Z,3.07
2018-09-21T19:43:44.905Z,1.83
2018-09-21T19:46:19.955Z,3.00
2018-09-21T19:48:55.105Z,2.73
2018-09-21T19:51:30.196Z,1.97
2018-09-21T19:54:05.267Z,4.23
2018-09-21T19:56:40.383Z,2.87
2018-09-21T19:59:15.665Z,4.83
2018-09-21T20:01:50.668Z,4.03
2018-09-21T20:04:25.784Z,2.53
2018-09-21T20:07:00.820Z,3.07
2018-09-21T20:09:35.928Z,4.57
2018-09-21T20:12:11.102Z,3.80
2018-09-21T20:14:46.238Z,3.00
2018-09-21T20:17:21.325Z,3.80
2018-09-21T20:32:45.793Z,4.97
2018-09-21T20:35:20.759Z,3.37
2018-09-21T20:37:55.880Z,3.83
2018-09-21T20:40:30.880Z,2.37
2018-09-21T20:43:05.981Z,4.17
2018-09-21T20:45:41.019Z,3.57
2018-09-21T20:48:16.107Z,2.23
2018-09-21T20:50:51.451Z,3.10
2018-09-21T20:53:26.585Z,3.60
2018-09-21T20:56:01.612Z,3.43
2018-09-21T20:58:36.708Z,3.83
2018-09-21T21:01:11.707Z,3.73
2018-09-21T21:03:46.821Z,3.73
2018-09-21T21:06:21.909Z,5.93
2018-09-21T21:08:57.016Z,8.13
2018-09-21T21:11:32.153Z,4.67
2018-09-21T21:14:07.340Z,4.80
2018-09-21T21:16:42.418Z,2.80
2018-09-21T21:19:17.577Z,2.03
2018-09-21T21:21:52.604Z,4.37
2018-09-21T21:24:27.760Z,4.30
2018-09-21T21:27:02.907Z,4.77
2018-09-21T21:29:38.108Z,2.97
2018-09-21T21:32:13.281Z,3.93
2018-09-21T21:34:48.344Z,4.13
2018-09-21T21:37:23.217Z,6.63
2018-09-21T21:39:58.360Z,5.40
2018-09-21T21:42:33.452Z,7.37
2018-09-21T21:45:08.578Z,3.47
2018-09-21T21:47:43.682Z,3.77
2018-09-21T21:50:18.741Z,4.27
2018-09-21T21:52:53.884Z,2.60
2018-09-21T21:55:28.796Z,3.10
2018-09-21T21:58:03.872Z,4.73
2018-09-21T22:00:43.968Z,2.97
2018-09-21T22:03:18.952Z,4.53
2018-09-21T22:05:53.955Z,1.97
2018-09-21T22:08:29.031Z,3.67
2018-09-21T22:11:08.288Z,2.77
2018-09-21T22:13:48.448Z,2.33
2018-09-21T22:16:23.488Z,2.57
2018-09-21T22:18:58.533Z,2.67
2018-09-21T22:21:34.052Z,1.90
2018-09-21T22:24:09.075Z,2.10
2018-09-21T22:26:44.235Z,3.50
2018-09-21T22:29:19.373Z,3.10
2018-09-21T22:31:54.443Z,4.97
2018-09-21T22:34:29.511Z,1.77
2018-09-21T22:37:04.615Z,3.07
2018-09-21T22:39:39.789Z,2.10
2018-09-21T22:42:14.840Z,4.10
2018-09-21T22:44:49.931Z,3.70
2018-09-21T22:47:24.843Z,2.77
2018-09-21T22:49:59.808Z,3.90
2018-09-21T22:52:34.988Z,3.00
2018-09-21T22:55:10.168Z,2.60
2018-09-21T22:57:45.264Z,3.87
2018-09-21T23:00:20.333Z,6.40
2018-09-21T23:02:55.436Z,4.13
2018-09-21T23:05:30.620Z,3.07
2018-09-21T23:08:05.822Z,3.57
2018-09-21T23:10:40.914Z,2.17
2018-09-21T23:13:15.969Z,4.13
2018-09-21T23:15:51.104Z,3.23
2018-09-21T23:18:26.252Z,4.60
2018-09-21T23:21:01.333Z,2.87
2018-09-21T23:23:36.432Z,3.30
2018-09-21T23:26:11.585Z,2.10
2018-09-21T23:28:46.687Z,3.13
2018-09-21T23:31:21.754Z,5.37
2018-09-21T23:33:56.853Z,5.07
2018-09-21T23:36:32.032Z,4.03
2018-09-21T23:39:09.072Z,2.53
2018-09-21T23:41:44.140Z,3.83
2018-09-21T23:44:19.229Z,3.70
2018-09-21T23:46:54.313Z,6.37
2018-09-21T23:49:29.456Z,3.97
2018-09-21T23:52:04.740Z,3.87
2018-09-21T23:54:39.900Z,5.77
2018-09-21T23:57:15.052Z,3.63
2018-09-21T23:59:50.128Z,5.47
